createdAt,value
2023-01-30T00:00:56.792Z,100369.72
2023-01-30T00:03:24.671Z,100358.41
2023-01-30T00:05:51.379Z,100359.34
2023-01-30T00:08:18.760Z,100361.13
2023-01-30T00:10:46.367Z,100345.44
2023-01-30T00:13:14.556Z,100334.22
2023-01-30T00:15:41.990Z,100316.91
2023-01-30T00:18:09.125Z,100319.63
2023-01-30T00:20:35.827Z,100301.41
2023-01-30T00:23:02.528Z,100289.28
2023-01-30T00:25:29.301Z,100284.97
2023-01-30T00:27:56.639Z,100260.69
2023-01-30T00:30:23.302Z,100263.34
2023-01-30T00:32:54.957Z,100266.84
2023-01-30T00:35:21.765Z,100266.00
2023-01-30T00:37:48.923Z,100263.47
2023-01-30T00:40:16.125Z,100270.50
2023-01-30T00:43:01.438Z,100271.47
2023-01-30T00:45:46.746Z,100273.13
2023-01-30T00:48:13.441Z,100274.06
2023-01-30T00:50:42.945Z,100269.84
2023-01-30T00:53:13.400Z,100271.59
2023-01-30T00:55:40.806Z,100254.25
2023-01-30T00:58:07.628Z,100263.03
2023-01-30T01:00:34.491Z,100256.19
2023-01-30T01:03:02.461Z,100242.28
2023-01-30T01:05:28.984Z,100226.59
2023-01-30T01:07:55.709Z,100223.13
2023-01-30T01:10:23.748Z,100220.47
2023-01-30T01:12:52.360Z,100207.28
2023-01-30T01:15:20.233Z,100202.78
2023-01-30T01:17:49.104Z,100203.56
2023-01-30T01:20:18.297Z,100214.88
2023-01-30T01:22:45.691Z,100206.97
2023-01-30T01:25:12.603Z,100208.69
2023-01-30T01:27:39.698Z,100201.81
2023-01-30T01:30:09.114Z,100189.72
2023-01-30T01:32:36.575Z,100175.00
2023-01-30T01:35:03.130Z,100182.13
2023-01-30T01:37:29.746Z,100172.63
2023-01-30T01:40:15.033Z,100166.47
2023-01-30T01:42:41.585Z,100156.03
2023-01-30T01:45:17.747Z,100159.47
2023-01-30T01:47:52.816Z,100148.22
2023-01-30T01:50:24.714Z,100132.53
2023-01-30T01:52:54.287Z,100129.19
2023-01-30T01:55:24.130Z,100119.69
2023-01-30T01:58:03.144Z,100102.16
2023-01-30T02:00:31.897Z,100092.63
2023-01-30T02:03:06.599Z,100087.53
2023-01-30T02:05:37.078Z,100080.66
2023-01-30T02:08:10.637Z,100072.84
2023-01-30T02:10:50.772Z,100061.53
2023-01-30T02:13:17.961Z,100067.66
2023-01-30T02:15:45.078Z,100058.09
2023-01-30T02:18:13.466Z,100065.94
2023-01-30T02:20:58.684Z,100064.19
2023-01-30T02:23:37.198Z,100066.81
2023-01-30T02:26:12.578Z,100053.69
2023-01-30T02:29:03.751Z,100048.50
2023-01-30T02:31:30.381Z,100047.72
2023-01-30T02:34:12.693Z,100032.00
2023-01-30T02:37:01.245Z,100030.25
2023-01-30T02:40:05.498Z,100037.25
2023-01-30T02:42:44.349Z,100039.00
2023-01-30T02:45:34.275Z,100039.97
2023-01-30T02:48:11.643Z,100033.97
2023-01-30T02:50:45.301Z,100025.34
2023-01-30T02:53:12.709Z,100005.38
2023-01-30T02:55:42.747Z,100019.41
2023-01-30T02:58:10.821Z,100020.28
2023-01-30T03:01:14.925Z,99999.44
2023-01-30T03:03:54.065Z,100003.81
2023-01-30T03:06:36.205Z,99980.28
2023-01-30T03:09:36.926Z,99978.59
2023-01-30T03:12:11.243Z,99980.47
2023-01-30T03:15:14.379Z,99988.38
2023-01-30T03:17:45.257Z,99975.31
2023-01-30T03:20:18.736Z,99971.03
2023-01-30T03:22:45.606Z,99972.03
2023-01-30T03:25:19.645Z,99973.88
2023-01-30T03:27:47.803Z,99964.38
2023-01-30T03:30:14.440Z,99953.16
2023-01-30T03:32:41.197Z,99962.88
2023-01-30T03:35:08.209Z,99949.81
2023-01-30T03:37:35.903Z,99943.78
2023-01-30T03:40:02.813Z,99932.50
2023-01-30T03:42:29.502Z,99935.16
2023-01-30T03:44:56.321Z,99915.97
2023-01-30T03:47:22.914Z,99914.31
2023-01-30T03:49:51.004Z,99918.69
2023-01-30T03:52:17.459Z,99914.31
2023-01-30T03:54:44.060Z,99908.97
2023-01-30T03:57:10.702Z,99906.22
2023-01-30T03:59:37.376Z,99900.00
2023-01-30T04:02:08.575Z,99916.47
2023-01-30T04:04:35.732Z,99900.66
2023-01-30T04:07:04.805Z,99909.28
2023-01-30T04:09:32.427Z,99907.50
2023-01-30T04:11:59.232Z,99897.03
2023-01-30T04:14:29.460Z,99900.53
2023-01-30T04:17:25.328Z,99888.34
2023-01-30T04:20:11.277Z,99885.69
2023-01-30T04:22:44.472Z,99883.06
2023-01-30T04:25:12.350Z,99877.78
2023-01-30T04:27:38.922Z,99873.41
2023-01-30T04:30:12.387Z,99873.38
2023-01-30T04:32:39.662Z,99876.00
2023-01-30T04:35:09.130Z,99869.00
2023-01-30T04:37:36.020Z,99866.44
2023-01-30T04:40:02.557Z,99862.06
2023-01-30T04:42:29.311Z,99870.84
2023-01-30T04:45:31.266Z,99863.84
2023-01-30T04:47:57.859Z,99857.78
2023-01-30T04:50:25.218Z,99860.47
2023-01-30T04:52:51.763Z,99862.22
2023-01-30T04:55:18.746Z,99850.06
2023-01-30T04:57:45.432Z,99839.59
2023-01-30T05:00:12.727Z,99832.66
2023-01-30T05:02:45.591Z,99824.78
2023-01-30T05:05:12.057Z,99827.44
2023-01-30T05:07:38.638Z,99816.97
2023-01-30T05:10:05.701Z,99801.28
2023-01-30T05:12:32.232Z,99796.97
2023-01-30T05:14:58.797Z,99804.84
2023-01-30T05:17:25.644Z,99801.34
2023-01-30T05:19:52.289Z,99796.09
2023-01-30T05:22:18.770Z,99791.78
2023-01-30T05:24:45.335Z,99794.41
2023-01-30T05:27:11.920Z,99786.56
2023-01-30T05:29:38.455Z,99778.72
2023-01-30T05:32:05.449Z,99768.25
2023-01-30T05:34:32.389Z,99780.53
2023-01-30T05:36:58.964Z,99767.44
2023-01-30T05:39:25.517Z,99757.00
2023-01-30T05:41:51.990Z,99779.69
2023-01-30T05:44:18.643Z,99777.13
2023-01-30T05:46:45.155Z,99771.91
2023-01-30T05:49:11.733Z,99761.47
2023-01-30T05:51:38.236Z,99770.28
2023-01-30T05:54:04.732Z,99780.81
2023-01-30T05:56:34.079Z,99774.72
2023-01-30T05:59:01.803Z,99773.00
2023-01-30T06:01:29.553Z,99789.66
2023-01-30T06:03:57.756Z,99770.47
2023-01-30T06:06:25.493Z,99773.16
2023-01-30T06:08:56.224Z,99769.72
2023-01-30T06:11:23.472Z,99766.25
2023-01-30T06:13:50.204Z,99768.06
2023-01-30T06:16:18.116Z,99756.72
2023-01-30T06:18:47.308Z,99760.25
2023-01-30T06:21:15.259Z,99752.44
2023-01-30T06:23:42.399Z,99770.81
2023-01-30T06:26:09.479Z,99756.88
2023-01-30T06:28:37.010Z,99760.41
2023-01-30T06:31:06.182Z,99754.31
2023-01-30T06:33:32.799Z,99742.09
2023-01-30T06:35:59.398Z,99756.91
2023-01-30T06:38:26.283Z,99752.53
2023-01-30T06:40:52.927Z,99761.22
2023-01-30T06:43:19.543Z,99765.69
2023-01-30T06:45:46.272Z,99764.81
2023-01-30T06:48:12.839Z,99777.97
2023-01-30T06:50:39.506Z,99777.91
2023-01-30T06:53:08.189Z,99776.13
2023-01-30T06:55:36.014Z,99774.28
2023-01-30T06:58:02.988Z,99789.16
2023-01-30T07:00:30.208Z,99775.31
2023-01-30T07:02:56.756Z,99774.56
2023-01-30T07:05:23.232Z,99790.47
2023-01-30T07:07:49.826Z,99795.88
2023-01-30T07:10:16.703Z,99806.34
2023-01-30T07:12:45.321Z,99807.22
2023-01-30T07:15:12.153Z,99809.91
2023-01-30T07:17:40.755Z,99800.25
2023-01-30T07:20:07.963Z,99803.72
2023-01-30T07:22:34.425Z,99817.72
2023-01-30T07:25:00.915Z,99830.00
2023-01-30T07:27:27.400Z,99825.88
2023-01-30T07:29:53.851Z,99831.31
2023-01-30T07:32:20.296Z,99840.16
2023-01-30T07:34:47.390Z,99830.56
2023-01-30T07:37:14.518Z,99833.38
2023-01-30T07:39:41.680Z,99823.88
2023-01-30T07:42:08.363Z,99833.69
2023-01-30T07:44:34.944Z,99827.72
2023-01-30T07:47:01.828Z,99827.75
2023-01-30T07:49:28.442Z,99832.25
2023-01-30T07:51:56.111Z,99842.84
2023-01-30T07:54:22.867Z,99828.94
2023-01-30T07:56:49.364Z,99832.78
2023-01-30T07:59:16.016Z,99831.13
2023-01-30T08:01:42.563Z,99825.88
2023-01-30T08:04:09.212Z,99833.78
2023-01-30T08:06:39.601Z,99837.16
2023-01-30T08:09:07.101Z,99832.63
2023-01-30T08:11:34.246Z,99833.28
2023-01-30T08:14:00.826Z,99841.09
2023-01-30T08:16:27.467Z,99841.84
2023-01-30T08:18:54.054Z,99844.47
2023-01-30T08:21:20.587Z,99836.75
2023-01-30T08:23:47.117Z,99853.50
2023-01-30T08:26:13.737Z,99848.41
2023-01-30T08:28:40.944Z,99845.00
2023-01-30T08:31:12.203Z,99842.44
2023-01-30T08:33:38.784Z,99862.69
2023-01-30T08:36:05.853Z,99848.75
2023-01-30T08:38:32.429Z,99856.72
2023-01-30T08:41:00.972Z,99865.56
2023-01-30T08:43:27.484Z,99868.28
2023-01-30T08:45:54.722Z,99872.69
2023-01-30T08:48:21.454Z,99878.88
2023-01-30T08:50:47.933Z,99870.09
2023-01-30T08:53:14.545Z,99855.16
2023-01-30T08:55:41.356Z,99853.44
2023-01-30T08:58:07.832Z,99847.38
2023-01-30T09:00:34.445Z,99856.22
2023-01-30T09:03:02.043Z,99858.88
2023-01-30T09:05:30.015Z,99865.91
2023-01-30T09:07:56.504Z,99850.22
2023-01-30T09:10:24.355Z,99854.63
2023-01-30T09:12:50.867Z,99863.47
2023-01-30T09:15:17.440Z,99870.53
2023-01-30T09:17:44.754Z,99864.31
2023-01-30T09:20:11.796Z,99855.53
2023-01-30T09:22:38.645Z,99868.88
2023-01-30T09:25:06.559Z,99866.38
2023-01-30T09:27:33.034Z,99884.00
2023-01-30T09:29:59.506Z,99861.28
2023-01-30T09:32:26.026Z,99863.13
2023-01-30T09:34:52.582Z,99865.78
2023-01-30T09:37:19.082Z,99867.59
2023-01-30T09:39:45.582Z,99843.97
2023-01-30T09:42:27.637Z,99852.78
2023-01-30T09:45:26.833Z,99864.25
2023-01-30T09:48:42.579Z,99855.44
2023-01-30T09:51:50.897Z,99848.59
2023-01-30T09:54:24.480Z,99866.88
2023-01-30T09:56:56.229Z,99851.88
2023-01-30T09:59:31.746Z,99843.06
2023-01-30T10:02:25.909Z,99845.88
2023-01-30T10:05:01.396Z,99846.78
2023-01-30T10:07:49.683Z,99838.06
2023-01-30T10:10:40.828Z,99845.03
2023-01-30T10:13:33.276Z,99846.75
2023-01-30T10:16:20.941Z,99852.91
2023-01-30T10:19:07.813Z,99843.28
2023-01-30T10:21:53.006Z,99839.69
2023-01-30T10:24:48.280Z,99846.75
2023-01-30T10:27:18.180Z,99838.16
2023-01-30T10:29:50.174Z,99842.47
2023-01-30T10:32:43.868Z,99846.13
2023-01-30T10:35:18.039Z,99826.00
2023-01-30T10:37:53.309Z,99842.66
2023-01-30T10:40:28.713Z,99828.69
2023-01-30T10:43:13.475Z,99834.88
2023-01-30T10:46:04.095Z,99827.00
2023-01-30T10:48:52.494Z,99834.13
2023-01-30T10:51:40.188Z,99820.97
2023-01-30T10:54:48.538Z,99820.16
2023-01-30T10:57:22.579Z,99822.00
2023-01-30T11:00:35.801Z,99815.00
2023-01-30T11:03:45.302Z,99827.34
2023-01-30T11:06:19.149Z,99814.34
2023-01-30T11:08:46.080Z,99813.38
2023-01-30T11:11:47.405Z,99810.09
2023-01-30T11:14:14.422Z,99793.69
2023-01-30T11:16:48.143Z,99793.78
2023-01-30T11:19:21.257Z,99789.31
2023-01-30T11:21:51.804Z,99802.41
2023-01-30T11:24:21.506Z,99789.13
2023-01-30T11:26:48.665Z,99773.16
2023-01-30T11:29:29.924Z,99777.28
2023-01-30T11:32:00.838Z,99768.28
2023-01-30T11:34:27.360Z,99820.47
2023-01-30T11:36:54.090Z,99798.81
2023-01-30T11:39:23.292Z,99809.56
2023-01-30T11:41:56.651Z,99787.88
2023-01-30T11:44:31.325Z,99781.44
2023-01-30T11:47:06.709Z,99788.56
2023-01-30T11:49:49.580Z,99782.09
2023-01-30T11:52:31.352Z,99791.44
2023-01-30T11:55:08.560Z,99787.06
2023-01-30T11:57:45.783Z,99793.28
2023-01-30T12:00:21.665Z,99785.38
2023-01-30T12:02:49.999Z,99790.50
2023-01-30T12:05:25.412Z,99779.06
2023-01-30T12:07:53.267Z,99782.53
2023-01-30T12:10:20.295Z,99781.56
2023-01-30T12:12:52.589Z,99756.16
2023-01-30T12:15:25.651Z,99760.47
2023-01-30T12:18:09.408Z,99758.69
2023-01-30T12:20:58.384Z,99742.94
2023-01-30T12:23:27.993Z,99731.53
2023-01-30T12:26:29.547Z,99739.31
2023-01-30T12:29:31.546Z,99748.91
2023-01-30T12:32:15.374Z,99743.63
2023-01-30T12:34:47.802Z,99740.16
2023-01-30T12:37:32.332Z,99734.91
2023-01-30T12:40:10.228Z,99772.63
2023-01-30T12:43:05.162Z,99746.25
2023-01-30T12:45:37.398Z,99758.50
2023-01-30T12:48:25.333Z,99792.56
2023-01-30T12:51:01.492Z,99783.94
2023-01-30T12:53:30.956Z,99763.06
2023-01-30T12:56:03.417Z,99764.44
2023-01-30T12:58:51.786Z,99794.78
2023-01-30T13:01:50.579Z,99765.34
2023-01-30T13:04:56.419Z,99780.50
2023-01-30T13:07:46.128Z,99758.56
2023-01-30T13:10:39.417Z,99776.81
2023-01-30T13:13:13.385Z,99779.97
2023-01-30T13:16:05.970Z,99791.97
2023-01-30T13:18:55.225Z,99781.22
2023-01-30T13:21:29.558Z,99780.41
2023-01-30T13:24:03.252Z,99802.66
2023-01-30T13:26:34.871Z,99803.63
2023-01-30T13:29:32.874Z,99786.13
2023-01-30T13:32:03.392Z,99799.44
2023-01-30T13:34:40.446Z,99798.50
2023-01-30T13:37:18.372Z,99797.41
2023-01-30T13:39:50.031Z,99805.84
2023-01-30T13:42:33.017Z,99832.69
2023-01-30T13:45:01.359Z,99799.44
2023-01-30T13:47:30.583Z,99804.66
2023-01-30T13:50:26.857Z,99809.03
2023-01-30T13:53:00.300Z,99818.72
2023-01-30T13:55:35.196Z,99817.06
2023-01-30T13:58:17.784Z,99824.94
2023-01-30T14:00:55.454Z,99818.13
2023-01-30T14:03:23.807Z,99828.84
2023-01-30T14:06:00.959Z,99841.91
2023-01-30T14:08:29.128Z,99834.94
2023-01-30T14:10:57.549Z,99827.97
2023-01-30T14:13:26.369Z,99842.16
2023-01-30T14:15:56.495Z,99826.41
2023-01-30T14:18:27.696Z,99839.16
2023-01-30T14:21:14.092Z,99850.44
2023-01-30T14:23:42.731Z,99870.41
2023-01-30T14:26:09.302Z,99865.78
2023-01-30T14:28:45.916Z,99888.97
2023-01-30T14:31:32.668Z,99913.81
2023-01-30T14:33:59.332Z,99935.28
2023-01-30T14:36:28.413Z,99931.88
2023-01-30T14:39:36.181Z,99930.97
2023-01-30T14:42:19.390Z,99944.06
2023-01-30T14:45:05.536Z,99939.75
2023-01-30T14:47:46.302Z,99942.41
2023-01-30T14:50:23.044Z,99944.88
2023-01-30T14:52:55.132Z,99955.38
2023-01-30T14:55:29.366Z,99950.16
2023-01-30T14:57:59.992Z,99963.25
2023-01-30T15:00:32.243Z,99974.63
2023-01-30T15:03:03.820Z,99968.56
2023-01-30T15:05:36.363Z,99967.75
2023-01-30T15:08:12.286Z,99971.97
2023-01-30T15:10:57.612Z,99972.84
2023-01-30T15:13:30.199Z,99966.00
2023-01-30T15:16:15.635Z,99979.13
2023-01-30T15:18:52.986Z,99982.50
2023-01-30T15:21:29.187Z,99984.13
2023-01-30T15:24:12.517Z,99990.16
2023-01-30T15:26:58.662Z,99992.88
2023-01-30T15:29:49.490Z,99989.47
2023-01-30T15:32:24.604Z,99989.53
2023-01-30T15:35:22.063Z,99987.75
2023-01-30T15:37:57.992Z,100003.56
2023-01-30T15:40:28.995Z,99998.41
2023-01-30T15:43:18.408Z,100018.59
2023-01-30T15:46:02.740Z,100016.06
2023-01-30T15:48:58.241Z,100035.19
2023-01-30T15:51:30.938Z,100050.91
2023-01-30T15:53:58.757Z,100059.66
2023-01-30T15:56:29.606Z,100081.59
2023-01-30T15:59:00.142Z,100086.78
2023-01-30T16:01:26.848Z,100078.00
2023-01-30T16:03:55.233Z,100111.19
2023-01-30T16:06:24.550Z,100122.63
2023-01-30T16:09:01.725Z,100134.03
2023-01-30T16:11:38.905Z,100130.25
2023-01-30T16:14:06.620Z,100139.75
2023-01-30T16:16:36.298Z,100150.09
2023-01-30T16:19:06.631Z,100151.66
2023-01-30T16:21:37.457Z,100160.25
2023-01-30T16:24:05.470Z,100155.88
2023-01-30T16:26:34.887Z,100153.25
2023-01-30T16:29:06.049Z,100163.53
2023-01-30T16:31:38.702Z,100161.66
2023-01-30T16:34:05.627Z,100179.13
2023-01-30T16:36:38.674Z,100180.91
2023-01-30T16:39:33.059Z,100188.78
2023-01-30T16:42:01.539Z,100186.34
2023-01-30T16:44:30.266Z,100191.75
2023-01-30T16:47:02.745Z,100212.88
2023-01-30T16:49:35.378Z,100209.59
2023-01-30T16:52:20.147Z,100221.28
2023-01-30T16:54:57.732Z,100231.00
2023-01-30T16:57:35.884Z,100238.94
2023-01-30T17:00:16.470Z,100246.00
2023-01-30T17:02:53.257Z,100265.28
2023-01-30T17:05:22.919Z,100250.38
2023-01-30T17:07:51.657Z,100267.91
2023-01-30T17:10:37.458Z,100269.75
2023-01-30T17:13:05.010Z,100277.81
2023-01-30T17:15:33.285Z,100285.75
2023-01-30T17:18:01.609Z,100290.13
2023-01-30T17:20:36.270Z,100301.56
2023-01-30T17:23:07.027Z,100306.00
2023-01-30T17:25:38.196Z,100316.69
2023-01-30T17:28:06.784Z,100329.94
2023-01-30T17:30:33.726Z,100319.53
2023-01-30T17:33:00.178Z,100332.69
2023-01-30T17:35:27.980Z,100321.41
2023-01-30T17:38:04.722Z,100324.94
2023-01-30T17:40:36.124Z,100338.06
2023-01-30T17:43:02.614Z,100313.59
2023-01-30T17:45:29.589Z,100339.94
2023-01-30T17:47:58.488Z,100361.81
2023-01-30T17:50:28.309Z,100350.38
2023-01-30T17:52:54.868Z,100355.63
2023-01-30T17:55:22.171Z,100346.03
2023-01-30T17:57:49.367Z,100336.38
2023-01-30T18:00:18.983Z,100343.38
2023-01-30T18:02:46.354Z,100360.84
2023-01-30T18:05:12.991Z,100353.72
2023-01-30T18:07:40.955Z,100367.50
2023-01-30T18:10:12.019Z,100363.88
2023-01-30T18:12:38.639Z,100374.16
2023-01-30T18:15:07.005Z,100389.66
2023-01-30T18:17:36.426Z,100380.69
2023-01-30T18:20:03.675Z,100400.56
2023-01-30T18:22:30.211Z,100400.38
2023-01-30T18:24:56.749Z,100394.94
2023-01-30T18:27:23.235Z,100411.53
2023-01-30T18:29:49.669Z,100409.63
2023-01-30T18:32:16.143Z,100404.34
2023-01-30T18:34:43.917Z,100406.03
2023-01-30T18:37:10.492Z,100406.81
2023-01-30T18:39:38.260Z,100412.06
2023-01-30T18:42:06.368Z,100404.31
2023-01-30T18:44:32.822Z,100406.16
2023-01-30T18:46:59.799Z,100410.66
2023-01-30T18:49:26.341Z,100416.97
2023-01-30T18:51:52.923Z,100415.50
2023-01-30T18:54:19.515Z,100424.53
2023-01-30T18:56:46.043Z,100423.78
2023-01-30T18:59:13.403Z,100448.47
2023-01-30T19:01:44.567Z,100452.94
2023-01-30T19:04:11.747Z,100437.19
2023-01-30T19:06:40.744Z,100454.81
2023-01-30T19:09:08.083Z,100460.09
2023-01-30T19:11:53.253Z,100481.25
2023-01-30T19:14:19.766Z,100480.38
2023-01-30T19:16:46.423Z,100461.91
2023-01-30T19:19:13.382Z,100472.34
2023-01-30T19:21:39.912Z,100472.47
2023-01-30T19:24:08.608Z,100486.19
2023-01-30T19:26:35.611Z,100475.34
2023-01-30T19:29:02.312Z,100481.97
2023-01-30T19:31:29.030Z,100485.31
2023-01-30T19:33:58.365Z,100485.91
2023-01-30T19:36:27.755Z,100502.38
2023-01-30T19:38:54.688Z,100515.38
2023-01-30T19:41:29.829Z,100506.56
2023-01-30T19:43:58.903Z,100502.84
2023-01-30T19:46:26.036Z,100501.84
2023-01-30T19:48:52.635Z,100493.84
2023-01-30T19:51:25.441Z,100496.31
2023-01-30T19:53:54.516Z,100508.50
2023-01-30T19:56:22.640Z,100513.56
2023-01-30T19:58:52.339Z,100510.81
2023-01-30T20:01:20.772Z,100511.53
2023-01-30T20:03:47.918Z,100517.50
2023-01-30T20:06:22.992Z,100535.69
2023-01-30T20:08:54.466Z,100527.97
2023-01-30T20:11:23.763Z,100523.69
2023-01-30T20:13:53.818Z,100529.69
2023-01-30T20:16:25.269Z,100528.94
2023-01-30T20:18:57.891Z,100532.25
2023-01-30T20:21:25.175Z,100539.22
2023-01-30T20:23:52.534Z,100544.59
2023-01-30T20:26:25.109Z,100550.03
2023-01-30T20:28:54.488Z,100559.97
2023-01-30T20:31:23.730Z,100564.59
2023-01-30T20:33:55.727Z,100564.72
2023-01-30T20:36:23.157Z,100570.19
2023-01-30T20:38:50.871Z,100571.28
2023-01-30T20:41:20.139Z,100579.38
2023-01-30T20:43:50.931Z,100583.91
2023-01-30T20:46:34.286Z,100599.75
2023-01-30T20:49:04.387Z,100582.31
2023-01-30T20:51:33.040Z,100586.66
2023-01-30T20:54:02.791Z,100582.31
2023-01-30T20:56:38.368Z,100581.31
2023-01-30T20:59:06.830Z,100586.34
2023-01-30T21:01:34.717Z,100597.72
2023-01-30T21:04:06.798Z,100605.69
2023-01-30T21:06:41.773Z,100603.19
2023-01-30T21:09:12.342Z,100613.59
2023-01-30T21:11:39.661Z,100621.41
2023-01-30T21:14:06.519Z,100624.84
2023-01-30T21:16:34.751Z,100630.94
2023-01-30T21:19:05.310Z,100637.91
2023-01-30T21:21:37.980Z,100641.44
2023-01-30T21:24:14.916Z,100645.00
2023-01-30T21:26:46.190Z,100637.16
2023-01-30T21:29:18.512Z,100675.41
2023-01-30T21:31:45.528Z,100667.31
2023-01-30T21:34:13.224Z,100665.56
2023-01-30T21:36:40.375Z,100681.22
2023-01-30T21:39:25.817Z,100670.69
2023-01-30T21:41:54.992Z,100665.47
2023-01-30T21:44:25.530Z,100676.00
2023-01-30T21:46:52.248Z,100679.50
2023-01-30T21:49:19.296Z,100679.59
2023-01-30T21:51:48.245Z,100692.00
2023-01-30T21:54:16.343Z,100699.00
2023-01-30T21:56:43.501Z,100699.13
2023-01-30T21:59:10.646Z,100701.81
2023-01-30T22:01:38.831Z,100700.06
2023-01-30T22:04:09.001Z,100703.59
2023-01-30T22:06:37.780Z,100709.59
2023-01-30T22:09:05.366Z,100709.56
2023-01-30T22:11:32.156Z,100713.78
2023-01-30T22:13:58.743Z,100705.88
2023-01-30T22:16:28.116Z,100704.16
2023-01-30T22:18:57.205Z,100702.25
2023-01-30T22:21:26.750Z,100688.91
2023-01-30T22:23:54.428Z,100696.56
2023-01-30T22:26:23.109Z,100706.16
2023-01-30T22:28:54.758Z,100710.28
2023-01-30T22:31:21.699Z,100717.00
2023-01-30T22:33:51.325Z,100712.41
2023-01-30T22:36:18.667Z,100719.19
2023-01-30T22:38:47.073Z,100732.19
2023-01-30T22:41:21.488Z,100732.19
2023-01-30T22:43:57.489Z,100735.63
2023-01-30T22:46:27.780Z,100730.94
2023-01-30T22:48:54.852Z,100747.19
2023-01-30T22:51:23.720Z,100748.69
2023-01-30T22:53:55.531Z,100750.25
2023-01-30T22:56:26.676Z,100757.97
2023-01-30T22:58:54.111Z,100760.34
2023-01-30T23:01:27.205Z,100761.78
2023-01-30T23:04:23.335Z,100758.19
2023-01-30T23:06:51.824Z,100755.19
2023-01-30T23:09:20.962Z,100752.38
2023-01-30T23:12:12.870Z,100754.94
2023-01-30T23:14:40.498Z,100743.50
2023-01-30T23:17:26.638Z,100754.13
2023-01-30T23:19:54.419Z,100751.56
2023-01-30T23:22:21.739Z,100768.16
2023-01-30T23:24:48.733Z,100754.34
2023-01-30T23:27:15.273Z,100745.81
2023-01-30T23:29:41.973Z,100750.28
2023-01-30T23:32:08.583Z,100744.16
2023-01-30T23:34:35.631Z,100750.06
2023-01-30T23:37:02.196Z,100752.56
2023-01-30T23:39:28.705Z,100748.09
2023-01-30T23:41:55.269Z,100755.78
2023-01-30T23:44:21.910Z,100756.53
2023-01-30T23:46:48.456Z,100757.31
2023-01-30T23:49:15.044Z,100763.25
2023-01-30T23:51:44.232Z,100761.38
2023-01-30T23:54:12.555Z,100756.94
2023-01-30T23:56:41.823Z,100752.50
2023-01-30T23:59:08.891Z,100757.63
